sensor_id;sensor_type;location;lat;lon;timestamp;pressure;altitude;pressure_sealevel;temperature
67758;BMP180;54562;47.620;18.786;2022-12-18T00:00:16;99736.20;;;-3.90
67758;BMP180;54562;47.620;18.786;2022-12-18T00:03:24;99742.20;;;-3.90
67758;BMP180;54562;47.620;18.786;2022-12-18T00:06:35;99745.80;;;-3.90
67758;BMP180;54562;47.620;18.786;2022-12-18T00:09:45;99754.80;;;-3.90
67758;BMP180;54562;47.620;18.786;2022-12-18T00:12:53;99753.40;;;-4.00
67758;BMP180;54562;47.620;18.786;2022-12-18T00:16:08;99755.40;;;-4.00
67758;BMP180;54562;47.620;18.786;2022-12-18T00:19:17;99764.20;;;-4.00
67758;BMP180;54562;47.620;18.786;2022-12-18T00:22:25;99773.00;;;-4.00
67758;BMP180;54562;47.620;18.786;2022-12-18T00:25:36;99781.20;;;-4.00
67758;BMP180;54562;47.620;18.786;2022-12-18T00:28:45;99783.60;;;-4.00
67758;BMP180;54562;47.620;18.786;2022-12-18T00:31:54;99789.80;;;-4.00
67758;BMP180;54562;47.620;18.786;2022-12-18T00:35:02;99791.20;;;-4.00
67758;BMP180;54562;47.620;18.786;2022-12-18T00:38:10;99797.80;;;-4.00
67758;BMP180;54562;47.620;18.786;2022-12-18T00:41:19;99790.20;;;-4.04
67758;BMP180;54562;47.620;18.786;2022-12-18T00:44:41;99795.40;;;-4.10
67758;BMP180;54562;47.620;18.786;2022-12-18T00:47:50;99798.60;;;-4.10
67758;BMP180;54562;47.620;18.786;2022-12-18T00:50:58;99790.00;;;-4.10
67758;BMP180;54562;47.620;18.786;2022-12-18T00:54:06;99799.40;;;-4.10
67758;BMP180;54562;47.620;18.786;2022-12-18T00:57:14;99813.60;;;-4.10
67758;BMP180;54562;47.620;18.786;2022-12-18T01:00:23;99811.40;;;-4.10
67758;BMP180;54562;47.620;18.786;2022-12-18T01:03:31;99812.80;;;-4.10
67758;BMP180;54562;47.620;18.786;2022-12-18T01:06:39;99816.40;;;-4.10
67758;BMP180;54562;47.620;18.786;2022-12-18T01:09:47;99822.40;;;-4.10
67758;BMP180;54562;47.620;18.786;2022-12-18T01:12:55;99827.00;;;-4.10
67758;BMP180;54562;47.620;18.786;2022-12-18T01:16:04;99829.20;;;-4.10
67758;BMP180;54562;47.620;18.786;2022-12-18T01:19:12;99834.40;;;-4.10
67758;BMP180;54562;47.620;18.786;2022-12-18T01:22:22;99830.20;;;-4.10
67758;BMP180;54562;47.620;18.786;2022-12-18T01:25:30;99832.00;;;-4.10
67758;BMP180;54562;47.620;18.786;2022-12-18T01:28:39;99833.60;;;-4.14
67758;BMP180;54562;47.620;18.786;2022-12-18T01:31:47;99837.60;;;-4.20
67758;BMP180;54562;47.620;18.786;2022-12-18T01:34:55;99839.80;;;-4.20
67758;BMP180;54562;47.620;18.786;2022-12-18T01:38:03;99840.00;;;-4.20
67758;BMP180;54562;47.620;18.786;2022-12-18T01:41:13;99835.20;;;-4.20
67758;BMP180;54562;47.620;18.786;2022-12-18T01:45:03;99834.00;;;-4.30
67758;BMP180;54562;47.620;18.786;2022-12-18T01:48:11;99842.40;;;-4.30
67758;BMP180;54562;47.620;18.786;2022-12-18T01:51:20;99839.80;;;-4.40
67758;BMP180;54562;47.620;18.786;2022-12-18T01:54:31;99846.40;;;-4.40
67758;BMP180;54562;47.620;18.786;2022-12-18T01:57:40;99852.40;;;-4.50
67758;BMP180;54562;47.620;18.786;2022-12-18T02:00:49;99848.00;;;-4.50
67758;BMP180;54562;47.620;18.786;2022-12-18T02:04:20;99853.00;;;-4.50
67758;BMP180;54562;47.620;18.786;2022-12-18T02:07:40;99858.60;;;-4.50
67758;BMP180;54562;47.620;18.786;2022-12-18T02:11:00;99860.00;;;-4.50
67758;BMP180;54562;47.620;18.786;2022-12-18T02:14:27;99860.20;;;-4.50
67758;BMP180;54562;47.620;18.786;2022-12-18T02:17:43;99868.80;;;-4.50
67758;BMP180;54562;47.620;18.786;2022-12-18T02:21:04;99875.60;;;-4.52
67758;BMP180;54562;47.620;18.786;2022-12-18T02:24:32;99884.00;;;-4.50
67758;BMP180;54562;47.620;18.786;2022-12-18T02:27:45;99883.80;;;-4.50
67758;BMP180;54562;47.620;18.786;2022-12-18T02:30:58;99880.80;;;-4.54
67758;BMP180;54562;47.620;18.786;2022-12-18T02:34:10;99890.80;;;-4.60
67758;BMP180;54562;47.620;18.786;2022-12-18T02:37:22;99893.20;;;-4.60
67758;BMP180;54562;47.620;18.786;2022-12-18T02:40:32;99901.20;;;-4.50
67758;BMP180;54562;47.620;18.786;2022-12-18T02:43:40;99909.60;;;-4.50
67758;BMP180;54562;47.620;18.786;2022-12-18T02:46:53;99901.00;;;-4.60
67758;BMP180;54562;47.620;18.786;2022-12-18T02:50:13;99897.20;;;-4.68
67758;BMP180;54562;47.620;18.786;2022-12-18T02:53:30;99903.40;;;-4.72
67758;BMP180;54562;47.620;18.786;2022-12-18T02:56:50;99905.60;;;-4.80
67758;BMP180;54562;47.620;18.786;2022-12-18T03:00:07;99922.60;;;-4.80
67758;BMP180;54562;47.620;18.786;2022-12-18T03:03:24;99924.40;;;-4.80
67758;BMP180;54562;47.620;18.786;2022-12-18T03:06:39;99923.80;;;-4.80
67758;BMP180;54562;47.620;18.786;2022-12-18T03:09:52;99923.80;;;-4.80
67758;BMP180;54562;47.620;18.786;2022-12-18T03:13:06;99920.60;;;-4.82
67758;BMP180;54562;47.620;18.786;2022-12-18T03:16:20;99927.60;;;-4.90
67758;BMP180;54562;47.620;18.786;2022-12-18T03:19:33;99929.00;;;-4.90
67758;BMP180;54562;47.620;18.786;2022-12-18T03:22:49;99929.80;;;-4.90
67758;BMP180;54562;47.620;18.786;2022-12-18T03:26:07;99932.80;;;-4.88
67758;BMP180;54562;47.620;18.786;2022-12-18T03:29:24;99938.40;;;-4.88
67758;BMP180;54562;47.620;18.786;2022-12-18T03:32:39;99942.00;;;-4.90
67758;BMP180;54562;47.620;18.786;2022-12-18T03:35:49;99943.60;;;-4.90
67758;BMP180;54562;47.620;18.786;2022-12-18T03:39:01;99948.80;;;-4.90
67758;BMP180;54562;47.620;18.786;2022-12-18T03:42:16;99954.40;;;-4.90
67758;BMP180;54562;47.620;18.786;2022-12-18T03:45:32;99952.40;;;-4.90
67758;BMP180;54562;47.620;18.786;2022-12-18T03:48:51;99964.20;;;-4.90
67758;BMP180;54562;47.620;18.786;2022-12-18T03:52:06;99962.60;;;-4.90
67758;BMP180;54562;47.620;18.786;2022-12-18T03:55:16;99958.80;;;-4.90
67758;BMP180;54562;47.620;18.786;2022-12-18T03:58:27;99967.00;;;-4.90
67758;BMP180;54562;47.620;18.786;2022-12-18T04:01:39;99974.80;;;-5.00
67758;BMP180;54562;47.620;18.786;2022-12-18T04:04:53;99980.00;;;-5.00
67758;BMP180;54562;47.620;18.786;2022-12-18T04:08:03;99982.20;;;-5.04
67758;BMP180;54562;47.620;18.786;2022-12-18T04:11:12;99988.60;;;-5.10
67758;BMP180;54562;47.620;18.786;2022-12-18T04:14:20;99981.60;;;-5.10
67758;BMP180;54562;47.620;18.786;2022-12-18T04:17:28;99986.40;;;-5.12
67758;BMP180;54562;47.620;18.786;2022-12-18T04:20:35;99986.80;;;-5.12
67758;BMP180;54562;47.620;18.786;2022-12-18T04:23:44;99986.80;;;-5.10
67758;BMP180;54562;47.620;18.786;2022-12-18T04:26:52;99993.20;;;-5.08
67758;BMP180;54562;47.620;18.786;2022-12-18T04:30:00;99992.80;;;-5.00
67758;BMP180;54562;47.620;18.786;2022-12-18T04:33:12;99997.40;;;-5.10
67758;BMP180;54562;47.620;18.786;2022-12-18T04:36:22;99994.20;;;-5.10
67758;BMP180;54562;47.620;18.786;2022-12-18T04:39:33;100001.20;;;-5.12
67758;BMP180;54562;47.620;18.786;2022-12-18T04:42:43;100006.20;;;-5.18
67758;BMP180;54562;47.620;18.786;2022-12-18T04:49:00;100011.60;;;-5.10
67758;BMP180;54562;47.620;18.786;2022-12-18T04:52:08;100015.60;;;-5.10
67758;BMP180;54562;47.620;18.786;2022-12-18T04:55:16;100017.00;;;-5.10
67758;BMP180;54562;47.620;18.786;2022-12-18T04:58:24;100025.40;;;-5.10
67758;BMP180;54562;47.620;18.786;2022-12-18T05:01:34;100029.80;;;-5.02
67758;BMP180;54562;47.620;18.786;2022-12-18T05:04:43;100030.00;;;-5.00
67758;BMP180;54562;47.620;18.786;2022-12-18T05:07:52;100032.00;;;-5.00
67758;BMP180;54562;47.620;18.786;2022-12-18T05:11:04;100028.40;;;-5.00
67758;BMP180;54562;47.620;18.786;2022-12-18T05:14:13;100032.60;;;-5.02
67758;BMP180;54562;47.620;18.786;2022-12-18T05:17:21;100040.60;;;-5.04
67758;BMP180;54562;47.620;18.786;2022-12-18T05:20:30;100043.00;;;-5.08
67758;BMP180;54562;47.620;18.786;2022-12-18T05:23:41;100048.20;;;-5.02
67758;BMP180;54562;47.620;18.786;2022-12-18T05:26:50;100050.60;;;-5.06
67758;BMP180;54562;47.620;18.786;2022-12-18T05:29:58;100048.40;;;-5.08
67758;BMP180;54562;47.620;18.786;2022-12-18T05:33:06;100043.60;;;-5.10
67758;BMP180;54562;47.620;18.786;2022-12-18T05:36:14;100050.60;;;-5.10
67758;BMP180;54562;47.620;18.786;2022-12-18T05:39:22;100051.80;;;-5.10
67758;BMP180;54562;47.620;18.786;2022-12-18T05:42:30;100066.40;;;-5.10
67758;BMP180;54562;47.620;18.786;2022-12-18T05:45:41;100073.00;;;-5.20
67758;BMP180;54562;47.620;18.786;2022-12-18T05:48:49;100071.40;;;-5.20
67758;BMP180;54562;47.620;18.786;2022-12-18T05:51:58;100075.60;;;-5.20
67758;BMP180;54562;47.620;18.786;2022-12-18T05:55:08;100081.20;;;-5.28
67758;BMP180;54562;47.620;18.786;2022-12-18T05:58:17;100079.00;;;-5.30
67758;BMP180;54562;47.620;18.786;2022-12-18T06:01:27;100084.80;;;-5.30
67758;BMP180;54562;47.620;18.786;2022-12-18T06:04:36;100085.00;;;-5.24
67758;BMP180;54562;47.620;18.786;2022-12-18T06:07:44;100083.00;;;-5.20
67758;BMP180;54562;47.620;18.786;2022-12-18T06:10:54;100084.40;;;-5.20
67758;BMP180;54562;47.620;18.786;2022-12-18T06:14:03;100088.00;;;-5.20
67758;BMP180;54562;47.620;18.786;2022-12-18T06:17:11;100091.00;;;-5.20
67758;BMP180;54562;47.620;18.786;2022-12-18T06:20:19;100092.80;;;-5.28
67758;BMP180;54562;47.620;18.786;2022-12-18T06:23:27;100092.40;;;-5.30
67758;BMP180;54562;47.620;18.786;2022-12-18T06:26:38;100087.40;;;-5.20
67758;BMP180;54562;47.620;18.786;2022-12-18T06:29:46;100098.20;;;-5.20
67758;BMP180;54562;47.620;18.786;2022-12-18T06:32:54;100112.60;;;-5.24
67758;BMP180;54562;47.620;18.786;2022-12-18T06:36:06;100117.80;;;-5.30
67758;BMP180;54562;47.620;18.786;2022-12-18T06:39:15;100119.00;;;-5.30
67758;BMP180;54562;47.620;18.786;2022-12-18T06:42:26;100122.20;;;-5.20
67758;BMP180;54562;47.620;18.786;2022-12-18T06:45:34;100124.00;;;-5.20
67758;BMP180;54562;47.620;18.786;2022-12-18T06:48:42;100128.20;;;-5.14
67758;BMP180;54562;47.620;18.786;2022-12-18T06:51:50;100135.40;;;-5.10
67758;BMP180;54562;47.620;18.786;2022-12-18T06:54:58;100142.80;;;-5.10
67758;BMP180;54562;47.620;18.786;2022-12-18T06:58:07;100154.40;;;-5.10
67758;BMP180;54562;47.620;18.786;2022-12-18T07:01:17;100160.40;;;-5.10
67758;BMP180;54562;47.620;18.786;2022-12-18T07:04:29;100163.00;;;-5.06
67758;BMP180;54562;47.620;18.786;2022-12-18T07:07:38;100167.80;;;-5.00
67758;BMP180;54562;47.620;18.786;2022-12-18T07:10:47;100171.00;;;-4.90
67758;BMP180;54562;47.620;18.786;2022-12-18T07:14:02;100174.40;;;-4.88
67758;BMP180;54562;47.620;18.786;2022-12-18T07:17:10;100185.40;;;-4.80
67758;BMP180;54562;47.620;18.786;2022-12-18T07:20:20;100189.80;;;-4.80
67758;BMP180;54562;47.620;18.786;2022-12-18T07:23:28;100193.40;;;-4.70
67758;BMP180;54562;47.620;18.786;2022-12-18T07:26:36;100199.60;;;-4.70
67758;BMP180;54562;47.620;18.786;2022-12-18T07:29:44;100203.40;;;-4.70
67758;BMP180;54562;47.620;18.786;2022-12-18T07:32:52;100206.40;;;-4.70
67758;BMP180;54562;47.620;18.786;2022-12-18T07:36:01;100219.00;;;-4.70
67758;BMP180;54562;47.620;18.786;2022-12-18T07:39:11;100225.60;;;-4.70
67758;BMP180;54562;47.620;18.786;2022-12-18T07:42:20;100229.60;;;-4.60
67758;BMP180;54562;47.620;18.786;2022-12-18T07:45:41;100231.80;;;-4.54
67758;BMP180;54562;47.620;18.786;2022-12-18T07:48:50;100235.80;;;-4.50
67758;BMP180;54562;47.620;18.786;2022-12-18T07:51:59;100241.60;;;-4.44
67758;BMP180;54562;47.620;18.786;2022-12-18T07:55:10;100241.00;;;-4.40
67758;BMP180;54562;47.620;18.786;2022-12-18T07:58:18;100253.20;;;-4.30
67758;BMP180;54562;47.620;18.786;2022-12-18T08:01:26;100249.20;;;-4.28
67758;BMP180;54562;47.620;18.786;2022-12-18T08:04:35;100256.00;;;-4.20
67758;BMP180;54562;47.620;18.786;2022-12-18T08:07:43;100261.60;;;-4.10
67758;BMP180;54562;47.620;18.786;2022-12-18T08:10:51;100259.00;;;-4.10
67758;BMP180;54562;47.620;18.786;2022-12-18T08:13:59;100258.20;;;-4.00
67758;BMP180;54562;47.620;18.786;2022-12-18T08:17:07;100271.60;;;-3.90
67758;BMP180;54562;47.620;18.786;2022-12-18T08:20:16;100272.80;;;-3.84
67758;BMP180;54562;47.620;18.786;2022-12-18T08:23:25;100272.40;;;-3.80
67758;BMP180;54562;47.620;18.786;2022-12-18T08:26:34;100273.00;;;-3.70
67758;BMP180;54562;47.620;18.786;2022-12-18T08:29:43;100277.00;;;-3.70
67758;BMP180;54562;47.620;18.786;2022-12-18T08:32:54;100278.40;;;-3.60
67758;BMP180;54562;47.620;18.786;2022-12-18T08:36:05;100279.60;;;-3.52
67758;BMP180;54562;47.620;18.786;2022-12-18T08:39:14;100284.80;;;-3.50
67758;BMP180;54562;47.620;18.786;2022-12-18T08:42:22;100286.60;;;-3.40
67758;BMP180;54562;47.620;18.786;2022-12-18T08:45:47;100289.00;;;-3.30
67758;BMP180;54562;47.620;18.786;2022-12-18T08:48:56;100290.00;;;-3.20
67758;BMP180;54562;47.620;18.786;2022-12-18T08:52:05;100291.40;;;-3.10
67758;BMP180;54562;47.620;18.786;2022-12-18T08:55:13;100292.60;;;-2.94
67758;BMP180;54562;47.620;18.786;2022-12-18T08:58:22;100295.80;;;-2.80
67758;BMP180;54562;47.620;18.786;2022-12-18T09:01:30;100306.20;;;-2.70
67758;BMP180;54562;47.620;18.786;2022-12-18T09:04:40;100301.20;;;-2.50
67758;BMP180;54562;47.620;18.786;2022-12-18T09:07:52;100303.40;;;-2.40
67758;BMP180;54562;47.620;18.786;2022-12-18T09:11:00;100305.40;;;-2.22
67758;BMP180;54562;47.620;18.786;2022-12-18T09:14:09;100301.20;;;-2.10
67758;BMP180;54562;47.620;18.786;2022-12-18T09:17:18;100303.00;;;-1.90
67758;BMP180;54562;47.620;18.786;2022-12-18T09:20:26;100304.00;;;-1.80
67758;BMP180;54562;47.620;18.786;2022-12-18T09:23:37;100305.20;;;-1.60
67758;BMP180;54562;47.620;18.786;2022-12-18T09:26:45;100310.40;;;-1.46
67758;BMP180;54562;47.620;18.786;2022-12-18T09:29:53;100304.60;;;-1.30
67758;BMP180;54562;47.620;18.786;2022-12-18T09:33:02;100306.20;;;-1.20
67758;BMP180;54562;47.620;18.786;2022-12-18T09:36:15;100308.00;;;-1.10
67758;BMP180;54562;47.620;18.786;2022-12-18T09:39:24;100301.20;;;-1.00
67758;BMP180;54562;47.620;18.786;2022-12-18T09:42:32;100303.60;;;-0.90
67758;BMP180;54562;47.620;18.786;2022-12-18T09:45:45;100298.20;;;-0.70
67758;BMP180;54562;47.620;18.786;2022-12-18T09:49:02;100298.20;;;-0.60
67758;BMP180;54562;47.620;18.786;2022-12-18T09:52:19;100293.00;;;-0.50
67758;BMP180;54562;47.620;18.786;2022-12-18T09:55:35;100302.20;;;-0.40
67758;BMP180;54562;47.620;18.786;2022-12-18T09:58:53;100303.00;;;-0.30
67758;BMP180;54562;47.620;18.786;2022-12-18T10:02:16;100301.20;;;-0.20
67758;BMP180;54562;47.620;18.786;2022-12-18T10:05:37;100300.00;;;0.00
67758;BMP180;54562;47.620;18.786;2022-12-18T10:08:58;100304.60;;;0.12
67758;BMP180;54562;47.620;18.786;2022-12-18T10:12:17;100308.80;;;0.20
67758;BMP180;54562;47.620;18.786;2022-12-18T10:15:36;100309.20;;;0.30
67758;BMP180;54562;47.620;18.786;2022-12-18T10:19:14;100306.60;;;0.40
67758;BMP180;54562;47.620;18.786;2022-12-18T10:22:46;100302.80;;;0.60
67758;BMP180;54562;47.620;18.786;2022-12-18T10:26:05;100297.80;;;0.60
67758;BMP180;54562;47.620;18.786;2022-12-18T10:29:17;100309.20;;;0.70
67758;BMP180;54562;47.620;18.786;2022-12-18T10:32:29;100306.60;;;0.76
67758;BMP180;54562;47.620;18.786;2022-12-18T10:35:42;100307.00;;;0.90
67758;BMP180;54562;47.620;18.786;2022-12-18T10:38:52;100309.40;;;0.90
67758;BMP180;54562;47.620;18.786;2022-12-18T10:42:18;100313.60;;;0.90
67758;BMP180;54562;47.620;18.786;2022-12-18T10:45:26;100307.60;;;0.96
67758;BMP180;54562;47.620;18.786;2022-12-18T10:48:37;100309.60;;;0.94
67758;BMP180;54562;47.620;18.786;2022-12-18T10:51:48;100301.60;;;1.00
67758;BMP180;54562;47.620;18.786;2022-12-18T10:55:01;100298.00;;;1.00
67758;BMP180;54562;47.620;18.786;2022-12-18T10:58:27;100298.80;;;1.00
67758;BMP180;54562;47.620;18.786;2022-12-18T11:01:54;100298.20;;;1.00
67758;BMP180;54562;47.620;18.786;2022-12-18T11:05:07;100294.20;;;1.00
67758;BMP180;54562;47.620;18.786;2022-12-18T11:08:31;100283.40;;;1.00
67758;BMP180;54562;47.620;18.786;2022-12-18T11:11:40;100290.40;;;1.00
67758;BMP180;54562;47.620;18.786;2022-12-18T11:14:54;100280.80;;;1.02
67758;BMP180;54562;47.620;18.786;2022-12-18T11:18:19;100285.40;;;1.00
67758;BMP180;54562;47.620;18.786;2022-12-18T11:21:28;100287.80;;;1.10
67758;BMP180;54562;47.620;18.786;2022-12-18T11:24:38;100285.00;;;1.00
67758;BMP180;54562;47.620;18.786;2022-12-18T11:27:54;100287.40;;;1.00
67758;BMP180;54562;47.620;18.786;2022-12-18T11:31:23;100289.00;;;1.00
67758;BMP180;54562;47.620;18.786;2022-12-18T11:34:34;100280.80;;;1.10
67758;BMP180;54562;47.620;18.786;2022-12-18T11:37:41;100280.40;;;1.10
67758;BMP180;54562;47.620;18.786;2022-12-18T11:40:58;100271.00;;;1.10
67758;BMP180;54562;47.620;18.786;2022-12-18T11:44:13;100262.80;;;1.20
67758;BMP180;54562;47.620;18.786;2022-12-18T11:47:31;100263.80;;;1.30
67758;BMP180;54562;47.620;18.786;2022-12-18T11:50:51;100262.60;;;1.30
67758;BMP180;54562;47.620;18.786;2022-12-18T11:53:59;100258.40;;;1.30
67758;BMP180;54562;47.620;18.786;2022-12-18T11:57:16;100255.20;;;1.40
67758;BMP180;54562;47.620;18.786;2022-12-18T12:00:28;100257.80;;;1.50
67758;BMP180;54562;47.620;18.786;2022-12-18T12:04:08;100256.60;;;1.50
67758;BMP180;54562;47.620;18.786;2022-12-18T12:07:31;100260.20;;;1.60
67758;BMP180;54562;47.620;18.786;2022-12-18T12:10:52;100254.00;;;1.94
67758;BMP180;54562;47.620;18.786;2022-12-18T12:14:45;100259.20;;;2.32
67758;BMP180;54562;47.620;18.786;2022-12-18T12:18:04;100264.00;;;2.80
67758;BMP180;54562;47.620;18.786;2022-12-18T12:21:28;100265.00;;;2.80
67758;BMP180;54562;47.620;18.786;2022-12-18T12:24:44;100262.20;;;2.90
67758;BMP180;54562;47.620;18.786;2022-12-18T12:28:19;100262.40;;;3.00
67758;BMP180;54562;47.620;18.786;2022-12-18T12:31:49;100248.00;;;3.60
67758;BMP180;54562;47.620;18.786;2022-12-18T12:35:16;100254.80;;;4.00
67758;BMP180;54562;47.620;18.786;2022-12-18T12:38:37;100254.00;;;4.02
67758;BMP180;54562;47.620;18.786;2022-12-18T12:42:01;100255.40;;;3.80
67758;BMP180;54562;47.620;18.786;2022-12-18T12:45:36;100260.60;;;3.50
67758;BMP180;54562;47.620;18.786;2022-12-18T12:48:51;100268.60;;;3.94
67758;BMP180;54562;47.620;18.786;2022-12-18T12:52:06;100276.00;;;4.30
67758;BMP180;54562;47.620;18.786;2022-12-18T12:55:21;100272.80;;;5.12
67758;BMP180;54562;47.620;18.786;2022-12-18T12:58:38;100275.80;;;5.52
67758;BMP180;54562;47.620;18.786;2022-12-18T13:02:01;100279.60;;;6.00
67758;BMP180;54562;47.620;18.786;2022-12-18T13:05:23;100288.80;;;6.00
67758;BMP180;54562;47.620;18.786;2022-12-18T13:08:51;100286.20;;;5.90
67758;BMP180;54562;47.620;18.786;2022-12-18T13:12:08;100285.20;;;6.00
67758;BMP180;54562;47.620;18.786;2022-12-18T13:15:45;100288.80;;;6.10
67758;BMP180;54562;47.620;18.786;2022-12-18T13:18:57;100293.00;;;5.90
67758;BMP180;54562;47.620;18.786;2022-12-18T13:22:12;100290.20;;;6.10
67758;BMP180;54562;47.620;18.786;2022-12-18T13:25:35;100298.00;;;6.50
67758;BMP180;54562;47.620;18.786;2022-12-18T13:28:59;100298.00;;;6.50
67758;BMP180;54562;47.620;18.786;2022-12-18T13:32:23;100300.60;;;6.30
67758;BMP180;54562;47.620;18.786;2022-12-18T13:35:50;100293.40;;;6.22
67758;BMP180;54562;47.620;18.786;2022-12-18T13:39:37;100290.80;;;6.60
67758;BMP180;54562;47.620;18.786;2022-12-18T13:42:46;100295.40;;;6.70
67758;BMP180;54562;47.620;18.786;2022-12-18T13:46:44;100306.00;;;6.70
67758;BMP180;54562;47.620;18.786;2022-12-18T13:49:58;100302.20;;;6.90
67758;BMP180;54562;47.620;18.786;2022-12-18T13:53:11;100304.80;;;7.10
67758;BMP180;54562;47.620;18.786;2022-12-18T13:56:29;100309.40;;;7.30
67758;BMP180;54562;47.620;18.786;2022-12-18T13:59:41;100309.20;;;7.50
67758;BMP180;54562;47.620;18.786;2022-12-18T14:02:49;100311.00;;;7.22
67758;BMP180;54562;47.620;18.786;2022-12-18T14:06:04;100316.20;;;6.90
67758;BMP180;54562;47.620;18.786;2022-12-18T14:09:17;100313.60;;;6.50
67758;BMP180;54562;47.620;18.786;2022-12-18T14:12:31;100314.40;;;6.32
67758;BMP180;54562;47.620;18.786;2022-12-18T14:15:58;100310.20;;;5.88
67758;BMP180;54562;47.620;18.786;2022-12-18T14:19:17;100314.60;;;5.46
67758;BMP180;54562;47.620;18.786;2022-12-18T14:22:28;100319.80;;;5.00
67758;BMP180;54562;47.620;18.786;2022-12-18T14:25:37;100319.00;;;4.60
67758;BMP180;54562;47.620;18.786;2022-12-18T14:28:47;100316.00;;;3.94
67758;BMP180;54562;47.620;18.786;2022-12-18T14:32:13;100335.40;;;3.36
67758;BMP180;54562;47.620;18.786;2022-12-18T14:35:24;100341.80;;;2.76
67758;BMP180;54562;47.620;18.786;2022-12-18T14:38:34;100351.20;;;2.24
67758;BMP180;54562;47.620;18.786;2022-12-18T14:41:43;100352.80;;;1.80
67758;BMP180;54562;47.620;18.786;2022-12-18T14:44:52;100362.80;;;1.40
67758;BMP180;54562;47.620;18.786;2022-12-18T14:48:24;100364.60;;;1.10
67758;BMP180;54562;47.620;18.786;2022-12-18T14:51:39;100361.40;;;0.80
67758;BMP180;54562;47.620;18.786;2022-12-18T14:54:49;100364.00;;;0.60
67758;BMP180;54562;47.620;18.786;2022-12-18T14:57:56;100377.20;;;0.36
67758;BMP180;54562;47.620;18.786;2022-12-18T15:01:05;100373.40;;;0.20
67758;BMP180;54562;47.620;18.786;2022-12-18T15:04:30;100365.60;;;0.08
67758;BMP180;54562;47.620;18.786;2022-12-18T15:07:46;100372.60;;;-0.10
67758;BMP180;54562;47.620;18.786;2022-12-18T15:10:54;100380.40;;;-0.20
67758;BMP180;54562;47.620;18.786;2022-12-18T15:14:31;100394.40;;;-0.34
67758;BMP180;54562;47.620;18.786;2022-12-18T15:17:39;100394.40;;;-0.48
67758;BMP180;54562;47.620;18.786;2022-12-18T15:20:50;100403.00;;;-0.50
67758;BMP180;54562;47.620;18.786;2022-12-18T15:24:13;100408.40;;;-0.60
67758;BMP180;54562;47.620;18.786;2022-12-18T15:27:30;100415.40;;;-0.80
67758;BMP180;54562;47.620;18.786;2022-12-18T15:30:39;100423.80;;;-0.90
67758;BMP180;54562;47.620;18.786;2022-12-18T15:34:11;100427.40;;;-0.94
67758;BMP180;54562;47.620;18.786;2022-12-18T15:37:20;100440.20;;;-1.10
67758;BMP180;54562;47.620;18.786;2022-12-18T15:40:28;100444.40;;;-1.10
67758;BMP180;54562;47.620;18.786;2022-12-18T15:43:39;100440.60;;;-1.12
67758;BMP180;54562;47.620;18.786;2022-12-18T15:46:48;100444.40;;;-1.20
67758;BMP180;54562;47.620;18.786;2022-12-18T15:49:58;100442.00;;;-1.30
67758;BMP180;54562;47.620;18.786;2022-12-18T15:53:07;100441.60;;;-1.38
67758;BMP180;54562;47.620;18.786;2022-12-18T15:56:17;100437.20;;;-1.40
67758;BMP180;54562;47.620;18.786;2022-12-18T15:59:44;100444.00;;;-1.50
67758;BMP180;54562;47.620;18.786;2022-12-18T16:02:52;100442.60;;;-1.66
67758;BMP180;54562;47.620;18.786;2022-12-18T16:06:00;100447.00;;;-1.80
67758;BMP180;54562;47.620;18.786;2022-12-18T16:09:09;100448.00;;;-2.00
67758;BMP180;54562;47.620;18.786;2022-12-18T16:12:22;100445.00;;;-2.10
67758;BMP180;54562;47.620;18.786;2022-12-18T16:15:30;100452.00;;;-2.30
67758;BMP180;54562;47.620;18.786;2022-12-18T16:18:38;100465.20;;;-2.36
67758;BMP180;54562;47.620;18.786;2022-12-18T16:21:49;100469.40;;;-2.40
67758;BMP180;54562;47.620;18.786;2022-12-18T16:24:59;100469.00;;;-2.50
67758;BMP180;54562;47.620;18.786;2022-12-18T16:28:07;100471.40;;;-2.50
67758;BMP180;54562;47.620;18.786;2022-12-18T16:31:15;100480.40;;;-2.50
67758;BMP180;54562;47.620;18.786;2022-12-18T16:34:25;100478.80;;;-2.50
67758;BMP180;54562;47.620;18.786;2022-12-18T16:37:35;100474.60;;;-2.50
67758;BMP180;54562;47.620;18.786;2022-12-18T16:40:43;100490.60;;;-2.50
67758;BMP180;54562;47.620;18.786;2022-12-18T16:44:06;100483.60;;;-2.50
67758;BMP180;54562;47.620;18.786;2022-12-18T16:47:14;100486.40;;;-2.50
67758;BMP180;54562;47.620;18.786;2022-12-18T16:50:22;100486.20;;;-2.56
67758;BMP180;54562;47.620;18.786;2022-12-18T16:53:33;100485.40;;;-2.70
67758;BMP180;54562;47.620;18.786;2022-12-18T16:56:42;100479.80;;;-2.70
67758;BMP180;54562;47.620;18.786;2022-12-18T16:59:51;100467.00;;;-2.80
67758;BMP180;54562;47.620;18.786;2022-12-18T17:02:59;100473.80;;;-2.80
67758;BMP180;54562;47.620;18.786;2022-12-18T17:06:09;100470.80;;;-2.90
67758;BMP180;54562;47.620;18.786;2022-12-18T17:09:18;100467.00;;;-2.90
67758;BMP180;54562;47.620;18.786;2022-12-18T17:12:28;100467.00;;;-2.90
67758;BMP180;54562;47.620;18.786;2022-12-18T17:15:38;100459.00;;;-2.90
67758;BMP180;54562;47.620;18.786;2022-12-18T17:18:49;100462.20;;;-2.90
67758;BMP180;54562;47.620;18.786;2022-12-18T17:25:25;100457.60;;;-3.08
67758;BMP180;54562;47.620;18.786;2022-12-18T17:28:33;100462.60;;;-3.10
67758;BMP180;54562;47.620;18.786;2022-12-18T17:31:41;100464.40;;;-3.12
67758;BMP180;54562;47.620;18.786;2022-12-18T17:34:50;100474.20;;;-3.20
67758;BMP180;54562;47.620;18.786;2022-12-18T17:37:58;100481.20;;;-3.20
67758;BMP180;54562;47.620;18.786;2022-12-18T17:41:10;100479.20;;;-3.30
67758;BMP180;54562;47.620;18.786;2022-12-18T17:44:18;100481.60;;;-3.30
67758;BMP180;54562;47.620;18.786;2022-12-18T17:47:26;100484.20;;;-3.30
67758;BMP180;54562;47.620;18.786;2022-12-18T17:50:36;100481.20;;;-3.30
67758;BMP180;54562;47.620;18.786;2022-12-18T17:53:45;100476.20;;;-3.30
67758;BMP180;54562;47.620;18.786;2022-12-18T17:56:53;100472.60;;;-3.30
67758;BMP180;54562;47.620;18.786;2022-12-18T18:00:02;100478.80;;;-3.30
67758;BMP180;54562;47.620;18.786;2022-12-18T18:03:10;100481.20;;;-3.30
67758;BMP180;54562;47.620;18.786;2022-12-18T18:06:19;100481.00;;;-3.30
67758;BMP180;54562;47.620;18.786;2022-12-18T18:09:27;100483.00;;;-3.30
67758;BMP180;54562;47.620;18.786;2022-12-18T18:12:36;100483.20;;;-3.30
67758;BMP180;54562;47.620;18.786;2022-12-18T18:16:02;100480.00;;;-3.20